sensor_id;sensor_type;location;lat;lon;timestamp;temperature;humidity
68922;DHT22;55959;51.244;5.724;2023-07-29T00:00:43;23.70;66.10
68922;DHT22;55959;51.244;5.724;2023-07-29T00:03:09;23.70;66.20
68922;DHT22;55959;51.244;5.724;2023-07-29T00:05:36;23.70;66.30
68922;DHT22;55959;51.244;5.724;2023-07-29T00:08:02;23.60;66.50
68922;DHT22;55959;51.244;5.724;2023-07-29T00:10:28;23.60;66.60
68922;DHT22;55959;51.244;5.724;2023-07-29T00:12:56;23.60;66.80
68922;DHT22;55959;51.244;5.724;2023-07-29T00:15:21;23.60;67.00
68922;DHT22;55959;51.244;5.724;2023-07-29T00:17:47;23.60;67.10
68922;DHT22;55959;51.244;5.724;2023-07-29T00:20:13;23.50;67.30
68922;DHT22;55959;51.244;5.724;2023-07-29T00:22:39;23.50;67.30
68922;DHT22;55959;51.244;5.724;2023-07-29T00:25:05;23.50;67.50
68922;DHT22;55959;51.244;5.724;2023-07-29T00:27:32;23.50;67.50
68922;DHT22;55959;51.244;5.724;2023-07-29T00:29:58;23.50;67.70
68922;DHT22;55959;51.244;5.724;2023-07-29T00:32:25;23.40;67.60
68922;DHT22;55959;51.244;5.724;2023-07-29T00:34:53;23.50;67.80
68922;DHT22;55959;51.244;5.724;2023-07-29T00:37:19;23.50;67.90
68922;DHT22;55959;51.244;5.724;2023-07-29T00:39:44;23.40;67.90
68922;DHT22;55959;51.244;5.724;2023-07-29T00:42:10;23.40;67.90
68922;DHT22;55959;51.244;5.724;2023-07-29T00:44:36;23.40;68.00
68922;DHT22;55959;51.244;5.724;2023-07-29T00:47:03;23.40;68.10
68922;DHT22;55959;51.244;5.724;2023-07-29T00:49:30;23.40;68.30
68922;DHT22;55959;51.244;5.724;2023-07-29T00:51:56;23.40;68.30
68922;DHT22;55959;51.244;5.724;2023-07-29T00:54:22;23.40;68.30
68922;DHT22;55959;51.244;5.724;2023-07-29T00:56:48;23.40;68.30
68922;DHT22;55959;51.244;5.724;2023-07-29T00:59:14;23.40;68.50
68922;DHT22;55959;51.244;5.724;2023-07-29T01:01:40;23.40;68.60
68922;DHT22;55959;51.244;5.724;2023-07-29T01:04:06;23.40;68.70
68922;DHT22;55959;51.244;5.724;2023-07-29T01:12:26;23.30;68.90
68922;DHT22;55959;51.244;5.724;2023-07-29T01:15:09;23.30;69.00
68922;DHT22;55959;51.244;5.724;2023-07-29T01:18:16;23.30;69.10
68922;DHT22;55959;51.244;5.724;2023-07-29T01:20:43;23.30;69.30
68922;DHT22;55959;51.244;5.724;2023-07-29T01:23:11;23.30;69.40
68922;DHT22;55959;51.244;5.724;2023-07-29T01:25:37;23.30;69.50
68922;DHT22;55959;51.244;5.724;2023-07-29T01:28:03;23.30;69.50
68922;DHT22;55959;51.244;5.724;2023-07-29T01:30:35;23.30;69.50
68922;DHT22;55959;51.244;5.724;2023-07-29T01:33:14;23.30;69.50
68922;DHT22;55959;51.244;5.724;2023-07-29T01:35:46;23.30;69.60
68922;DHT22;55959;51.244;5.724;2023-07-29T01:38:18;23.30;69.70
68922;DHT22;55959;51.244;5.724;2023-07-29T01:40:44;23.30;69.90
68922;DHT22;55959;51.244;5.724;2023-07-29T01:43:12;23.30;69.90
68922;DHT22;55959;51.244;5.724;2023-07-29T01:45:39;23.30;69.90
68922;DHT22;55959;51.244;5.724;2023-07-29T01:48:05;23.30;69.80
68922;DHT22;55959;51.244;5.724;2023-07-29T01:50:31;23.30;70.00
68922;DHT22;55959;51.244;5.724;2023-07-29T01:52:58;23.30;70.00
68922;DHT22;55959;51.244;5.724;2023-07-29T01:55:24;23.30;70.10
68922;DHT22;55959;51.244;5.724;2023-07-29T01:57:50;23.20;70.10
68922;DHT22;55959;51.244;5.724;2023-07-29T02:00:20;23.30;70.20
68922;DHT22;55959;51.244;5.724;2023-07-29T02:02:46;23.20;70.10
68922;DHT22;55959;51.244;5.724;2023-07-29T02:05:12;23.20;70.30
68922;DHT22;55959;51.244;5.724;2023-07-29T02:07:38;23.20;70.30
68922;DHT22;55959;51.244;5.724;2023-07-29T02:10:04;23.20;70.20
68922;DHT22;55959;51.244;5.724;2023-07-29T02:12:30;23.20;70.20
68922;DHT22;55959;51.244;5.724;2023-07-29T02:14:55;23.20;70.20
68922;DHT22;55959;51.244;5.724;2023-07-29T02:17:21;23.20;70.00
68922;DHT22;55959;51.244;5.724;2023-07-29T02:19:47;23.10;69.70
68922;DHT22;55959;51.244;5.724;2023-07-29T02:22:15;23.10;69.60
68922;DHT22;55959;51.244;5.724;2023-07-29T02:24:42;23.10;69.40
68922;DHT22;55959;51.244;5.724;2023-07-29T02:27:08;23.10;69.20
68922;DHT22;55959;51.244;5.724;2023-07-29T02:29:34;23.10;69.80
68922;DHT22;55959;51.244;5.724;2023-07-29T02:32:00;23.00;68.70
68922;DHT22;55959;51.244;5.724;2023-07-29T02:34:26;23.00;68.50
68922;DHT22;55959;51.244;5.724;2023-07-29T02:36:52;23.00;68.30
68922;DHT22;55959;51.244;5.724;2023-07-29T02:42:58;23.00;67.90
68922;DHT22;55959;51.244;5.724;2023-07-29T02:45:24;22.90;67.50
68922;DHT22;55959;51.244;5.724;2023-07-29T02:47:50;22.90;67.40
68922;DHT22;55959;51.244;5.724;2023-07-29T02:50:15;22.90;67.30
68922;DHT22;55959;51.244;5.724;2023-07-29T02:52:41;22.90;67.10
68922;DHT22;55959;51.244;5.724;2023-07-29T02:55:07;22.90;67.10
68922;DHT22;55959;51.244;5.724;2023-07-29T02:57:33;22.90;66.90
68922;DHT22;55959;51.244;5.724;2023-07-29T02:59:58;22.80;66.80
68922;DHT22;55959;51.244;5.724;2023-07-29T03:02:24;22.90;66.80
68922;DHT22;55959;51.244;5.724;2023-07-29T03:04:50;22.80;66.50
68922;DHT22;55959;51.244;5.724;2023-07-29T03:07:15;22.80;66.50
68922;DHT22;55959;51.244;5.724;2023-07-29T03:09:41;22.70;66.30
68922;DHT22;55959;51.244;5.724;2023-07-29T03:12:08;22.80;66.40
68922;DHT22;55959;51.244;5.724;2023-07-29T03:14:33;22.70;66.30
68922;DHT22;55959;51.244;5.724;2023-07-29T03:17:03;22.70;66.30
68922;DHT22;55959;51.244;5.724;2023-07-29T03:19:32;22.70;66.30
68922;DHT22;55959;51.244;5.724;2023-07-29T03:21:57;22.70;66.30
68922;DHT22;55959;51.244;5.724;2023-07-29T03:24:23;22.70;66.40
68922;DHT22;55959;51.244;5.724;2023-07-29T03:26:49;22.60;66.30
68922;DHT22;55959;51.244;5.724;2023-07-29T03:29:14;22.60;66.40
68922;DHT22;55959;51.244;5.724;2023-07-29T03:31:40;22.60;66.40
68922;DHT22;55959;51.244;5.724;2023-07-29T03:34:06;22.50;66.40
68922;DHT22;55959;51.244;5.724;2023-07-29T03:36:31;22.50;66.40
68922;DHT22;55959;51.244;5.724;2023-07-29T03:38:58;22.50;66.40
68922;DHT22;55959;51.244;5.724;2023-07-29T03:41:23;22.50;66.40
68922;DHT22;55959;51.244;5.724;2023-07-29T03:43:49;22.50;66.40
68922;DHT22;55959;51.244;5.724;2023-07-29T03:46:15;22.40;66.30
68922;DHT22;55959;51.244;5.724;2023-07-29T03:48:44;22.40;66.30
68922;DHT22;55959;51.244;5.724;2023-07-29T03:51:10;22.40;66.30
68922;DHT22;55959;51.244;5.724;2023-07-29T03:53:36;22.30;66.30
68922;DHT22;55959;51.244;5.724;2023-07-29T03:56:02;22.30;66.30
68922;DHT22;55959;51.244;5.724;2023-07-29T03:58:27;22.30;66.40
68922;DHT22;55959;51.244;5.724;2023-07-29T04:00:53;22.30;66.40
68922;DHT22;55959;51.244;5.724;2023-07-29T04:03:19;22.20;66.50
68922;DHT22;55959;51.244;5.724;2023-07-29T04:05:44;22.20;66.50
68922;DHT22;55959;51.244;5.724;2023-07-29T04:08:10;22.20;66.50
68922;DHT22;55959;51.244;5.724;2023-07-29T04:10:36;22.20;66.70
68922;DHT22;55959;51.244;5.724;2023-07-29T04:13:03;22.10;66.60
68922;DHT22;55959;51.244;5.724;2023-07-29T04:15:29;22.10;66.60
68922;DHT22;55959;51.244;5.724;2023-07-29T04:17:55;22.10;66.70
68922;DHT22;55959;51.244;5.724;2023-07-29T04:20:21;22.10;66.70
68922;DHT22;55959;51.244;5.724;2023-07-29T04:22:47;22.10;66.70
68922;DHT22;55959;51.244;5.724;2023-07-29T04:25:13;22.10;66.80
68922;DHT22;55959;51.244;5.724;2023-07-29T04:27:39;22.00;66.70
68922;DHT22;55959;51.244;5.724;2023-07-29T04:30:05;22.00;67.70
68922;DHT22;55959;51.244;5.724;2023-07-29T04:32:31;22.00;66.90
68922;DHT22;55959;51.244;5.724;2023-07-29T04:34:57;22.00;66.90
68922;DHT22;55959;51.244;5.724;2023-07-29T04:37:22;22.00;66.90
68922;DHT22;55959;51.244;5.724;2023-07-29T04:39:48;22.00;67.00
68922;DHT22;55959;51.244;5.724;2023-07-29T04:42:14;21.90;67.10
68922;DHT22;55959;51.244;5.724;2023-07-29T04:44:39;21.90;67.20
68922;DHT22;55959;51.244;5.724;2023-07-29T04:47:07;21.90;67.30
68922;DHT22;55959;51.244;5.724;2023-07-29T04:49:33;21.80;67.30
68922;DHT22;55959;51.244;5.724;2023-07-29T04:51:58;21.80;67.40
68922;DHT22;55959;51.244;5.724;2023-07-29T04:54:24;21.70;67.40
68922;DHT22;55959;51.244;5.724;2023-07-29T04:56:50;21.70;67.60
68922;DHT22;55959;51.244;5.724;2023-07-29T04:59:15;21.70;67.60
68922;DHT22;55959;51.244;5.724;2023-07-29T05:01:41;21.70;67.60
68922;DHT22;55959;51.244;5.724;2023-07-29T05:04:08;21.60;67.60
68922;DHT22;55959;51.244;5.724;2023-07-29T05:06:34;21.60;67.60
68922;DHT22;55959;51.244;5.724;2023-07-29T05:09:15;21.60;67.70
68922;DHT22;55959;51.244;5.724;2023-07-29T05:11:42;21.60;67.80
68922;DHT22;55959;51.244;5.724;2023-07-29T05:14:11;21.50;67.80
68922;DHT22;55959;51.244;5.724;2023-07-29T05:16:37;21.50;67.80
68922;DHT22;55959;51.244;5.724;2023-07-29T05:19:03;21.50;68.60
68922;DHT22;55959;51.244;5.724;2023-07-29T05:21:29;21.50;67.80
68922;DHT22;55959;51.244;5.724;2023-07-29T05:23:55;21.50;68.00
68922;DHT22;55959;51.244;5.724;2023-07-29T05:26:22;21.40;68.00
68922;DHT22;55959;51.244;5.724;2023-07-29T05:28:48;21.40;68.00
68922;DHT22;55959;51.244;5.724;2023-07-29T05:31:13;21.40;68.00
68922;DHT22;55959;51.244;5.724;2023-07-29T05:33:39;21.40;68.00
68922;DHT22;55959;51.244;5.724;2023-07-29T05:36:05;21.40;68.10
68922;DHT22;55959;51.244;5.724;2023-07-29T05:38:31;21.40;68.10
68922;DHT22;55959;51.244;5.724;2023-07-29T05:40:57;21.40;68.20
68922;DHT22;55959;51.244;5.724;2023-07-29T05:43:24;21.40;68.20
68922;DHT22;55959;51.244;5.724;2023-07-29T05:45:50;21.40;68.30
68922;DHT22;55959;51.244;5.724;2023-07-29T05:48:16;21.30;68.30
68922;DHT22;55959;51.244;5.724;2023-07-29T05:50:42;21.30;68.40
68922;DHT22;55959;51.244;5.724;2023-07-29T05:53:08;21.30;68.40
68922;DHT22;55959;51.244;5.724;2023-07-29T05:55:33;21.30;68.50
68922;DHT22;55959;51.244;5.724;2023-07-29T05:57:59;21.40;68.60
68922;DHT22;55959;51.244;5.724;2023-07-29T06:00:25;21.30;68.60
68922;DHT22;55959;51.244;5.724;2023-07-29T06:02:51;21.30;68.80
68922;DHT22;55959;51.244;5.724;2023-07-29T06:05:17;21.30;69.00
68922;DHT22;55959;51.244;5.724;2023-07-29T06:07:42;21.40;69.20
68922;DHT22;55959;51.244;5.724;2023-07-29T06:10:12;21.40;69.10
68922;DHT22;55959;51.244;5.724;2023-07-29T06:12:39;21.40;69.00
68922;DHT22;55959;51.244;5.724;2023-07-29T06:15:05;21.40;69.00
68922;DHT22;55959;51.244;5.724;2023-07-29T06:17:31;21.40;69.10
68922;DHT22;55959;51.244;5.724;2023-07-29T06:19:57;21.40;69.10
68922;DHT22;55959;51.244;5.724;2023-07-29T06:22:22;21.50;69.20
68922;DHT22;55959;51.244;5.724;2023-07-29T06:24:48;21.50;69.00
68922;DHT22;55959;51.244;5.724;2023-07-29T06:27:14;21.50;69.00
68922;DHT22;55959;51.244;5.724;2023-07-29T06:29:40;21.50;69.00
68922;DHT22;55959;51.244;5.724;2023-07-29T06:32:06;21.50;69.00
68922;DHT22;55959;51.244;5.724;2023-07-29T06:34:32;21.60;69.00
68922;DHT22;55959;51.244;5.724;2023-07-29T06:36:57;21.60;69.10
68922;DHT22;55959;51.244;5.724;2023-07-29T06:39:23;21.70;69.00
68922;DHT22;55959;51.244;5.724;2023-07-29T06:41:49;21.70;68.90
68922;DHT22;55959;51.244;5.724;2023-07-29T06:44:16;21.70;68.80
68922;DHT22;55959;51.244;5.724;2023-07-29T06:46:42;21.80;68.80
68922;DHT22;55959;51.244;5.724;2023-07-29T06:49:07;21.80;68.60
68922;DHT22;55959;51.244;5.724;2023-07-29T06:51:33;21.90;68.30
68922;DHT22;55959;51.244;5.724;2023-07-29T06:54:03;21.90;68.00
68922;DHT22;55959;51.244;5.724;2023-07-29T06:56:29;22.00;67.90
68922;DHT22;55959;51.244;5.724;2023-07-29T06:58:55;22.00;67.90
68922;DHT22;55959;51.244;5.724;2023-07-29T07:01:21;22.10;67.90
68922;DHT22;55959;51.244;5.724;2023-07-29T07:03:46;22.10;67.90
68922;DHT22;55959;51.244;5.724;2023-07-29T07:06:12;22.20;67.70
68922;DHT22;55959;51.244;5.724;2023-07-29T07:08:38;22.30;67.50
68922;DHT22;55959;51.244;5.724;2023-07-29T07:11:04;22.40;67.60
68922;DHT22;55959;51.244;5.724;2023-07-29T07:13:29;22.40;67.30
68922;DHT22;55959;51.244;5.724;2023-07-29T07:15:56;22.50;68.00
68922;DHT22;55959;51.244;5.724;2023-07-29T07:18:22;22.50;66.60
68922;DHT22;55959;51.244;5.724;2023-07-29T07:20:51;22.60;66.50
68922;DHT22;55959;51.244;5.724;2023-07-29T07:23:18;22.70;66.20
68922;DHT22;55959;51.244;5.724;2023-07-29T07:25:44;22.70;65.90
68922;DHT22;55959;51.244;5.724;2023-07-29T07:28:10;22.70;65.70
68922;DHT22;55959;51.244;5.724;2023-07-29T07:30:40;22.80;65.30
68922;DHT22;55959;51.244;5.724;2023-07-29T07:33:09;22.90;65.10
68922;DHT22;55959;51.244;5.724;2023-07-29T07:35:35;22.90;65.20
68922;DHT22;55959;51.244;5.724;2023-07-29T07:38:00;23.00;64.90
68922;DHT22;55959;51.244;5.724;2023-07-29T07:40:30;23.00;64.60
68922;DHT22;55959;51.244;5.724;2023-07-29T07:42:56;23.10;64.00
68922;DHT22;55959;51.244;5.724;2023-07-29T07:45:22;23.20;63.90
68922;DHT22;55959;51.244;5.724;2023-07-29T07:47:48;23.20;64.10
68922;DHT22;55959;51.244;5.724;2023-07-29T07:50:13;23.20;64.20
68922;DHT22;55959;51.244;5.724;2023-07-29T07:52:39;23.30;64.20
68922;DHT22;55959;51.244;5.724;2023-07-29T07:55:05;23.40;63.90
68922;DHT22;55959;51.244;5.724;2023-07-29T07:57:31;23.40;63.30
68922;DHT22;55959;51.244;5.724;2023-07-29T07:59:57;23.50;64.00
68922;DHT22;55959;51.244;5.724;2023-07-29T08:02:23;23.50;62.70
68922;DHT22;55959;51.244;5.724;2023-07-29T08:04:49;23.50;62.20
68922;DHT22;55959;51.244;5.724;2023-07-29T08:07:15;23.50;62.20
68922;DHT22;55959;51.244;5.724;2023-07-29T08:09:40;23.50;62.30
68922;DHT22;55959;51.244;5.724;2023-07-29T08:12:06;23.60;62.50
68922;DHT22;55959;51.244;5.724;2023-07-29T08:14:32;23.60;62.90
68922;DHT22;55959;51.244;5.724;2023-07-29T08:16:58;23.70;62.80
68922;DHT22;55959;51.244;5.724;2023-07-29T08:19:24;23.70;62.10
68922;DHT22;55959;51.244;5.724;2023-07-29T08:21:50;23.70;61.20
68922;DHT22;55959;51.244;5.724;2023-07-29T08:24:15;23.80;61.10
68922;DHT22;55959;51.244;5.724;2023-07-29T08:26:41;23.80;60.90
68922;DHT22;55959;51.244;5.724;2023-07-29T08:29:07;23.80;60.90
68922;DHT22;55959;51.244;5.724;2023-07-29T08:31:33;23.90;61.10
68922;DHT22;55959;51.244;5.724;2023-07-29T08:34:01;23.90;60.70
68922;DHT22;55959;51.244;5.724;2023-07-29T08:36:27;23.90;60.50
68922;DHT22;55959;51.244;5.724;2023-07-29T08:38:53;24.00;60.50
68922;DHT22;55959;51.244;5.724;2023-07-29T08:41:26;24.00;60.30
68922;DHT22;55959;51.244;5.724;2023-07-29T08:44:12;24.00;60.30
68922;DHT22;55959;51.244;5.724;2023-07-29T08:46:41;24.10;60.20
68922;DHT22;55959;51.244;5.724;2023-07-29T08:49:07;24.10;60.00
68922;DHT22;55959;51.244;5.724;2023-07-29T08:51:33;24.10;59.80
68922;DHT22;55959;51.244;5.724;2023-07-29T08:54:00;24.10;59.70
68922;DHT22;55959;51.244;5.724;2023-07-29T08:56:27;24.10;59.60
68922;DHT22;55959;51.244;5.724;2023-07-29T08:58:53;24.10;59.50
68922;DHT22;55959;51.244;5.724;2023-07-29T09:01:19;24.10;59.50
68922;DHT22;55959;51.244;5.724;2023-07-29T09:03:45;24.20;59.50
68922;DHT22;55959;51.244;5.724;2023-07-29T09:06:12;24.20;59.30
68922;DHT22;55959;51.244;5.724;2023-07-29T09:08:40;24.20;59.00
68922;DHT22;55959;51.244;5.724;2023-07-29T09:11:06;24.20;58.70
68922;DHT22;55959;51.244;5.724;2023-07-29T09:13:33;24.20;58.70
68922;DHT22;55959;51.244;5.724;2023-07-29T09:15:59;24.20;58.60
68922;DHT22;55959;51.244;5.724;2023-07-29T09:18:27;24.20;58.40
68922;DHT22;55959;51.244;5.724;2023-07-29T09:20:53;24.30;58.80
68922;DHT22;55959;51.244;5.724;2023-07-29T09:23:20;24.30;59.10
68922;DHT22;55959;51.244;5.724;2023-07-29T09:25:47;24.30;59.20
68922;DHT22;55959;51.244;5.724;2023-07-29T09:28:14;24.30;59.10
68922;DHT22;55959;51.244;5.724;2023-07-29T09:30:45;24.30;59.00
68922;DHT22;55959;51.244;5.724;2023-07-29T09:33:12;24.40;59.10
68922;DHT22;55959;51.244;5.724;2023-07-29T09:35:38;24.40;59.00
68922;DHT22;55959;51.244;5.724;2023-07-29T09:38:05;24.50;59.20
68922;DHT22;55959;51.244;5.724;2023-07-29T09:40:39;24.50;59.20
68922;DHT22;55959;51.244;5.724;2023-07-29T09:43:08;24.60;59.60
68922;DHT22;55959;51.244;5.724;2023-07-29T09:45:36;24.60;59.00
68922;DHT22;55959;51.244;5.724;2023-07-29T09:48:03;24.70;58.80
68922;DHT22;55959;51.244;5.724;2023-07-29T09:50:30;24.70;58.70
68922;DHT22;55959;51.244;5.724;2023-07-29T09:52:57;24.70;58.50
68922;DHT22;55959;51.244;5.724;2023-07-29T09:55:26;24.80;58.20
68922;DHT22;55959;51.244;5.724;2023-07-29T09:57:54;24.80;58.30
68922;DHT22;55959;51.244;5.724;2023-07-29T10:00:23;24.90;58.10
68922;DHT22;55959;51.244;5.724;2023-07-29T10:02:49;25.00;57.70
68922;DHT22;55959;51.244;5.724;2023-07-29T10:05:15;25.00;57.60
68922;DHT22;55959;51.244;5.724;2023-07-29T10:07:41;25.00;57.40
68922;DHT22;55959;51.244;5.724;2023-07-29T10:10:08;25.10;57.60
68922;DHT22;55959;51.244;5.724;2023-07-29T10:12:35;25.10;58.00
68922;DHT22;55959;51.244;5.724;2023-07-29T10:15:04;25.10;58.00
68922;DHT22;55959;51.244;5.724;2023-07-29T10:17:34;25.20;58.00
68922;DHT22;55959;51.244;5.724;2023-07-29T10:20:03;25.30;58.00
68922;DHT22;55959;51.244;5.724;2023-07-29T10:22:41;25.30;57.90
68922;DHT22;55959;51.244;5.724;2023-07-29T10:25:24;25.40;57.60
68922;DHT22;55959;51.244;5.724;2023-07-29T10:27:56;25.40;56.90
68922;DHT22;55959;51.244;5.724;2023-07-29T10:30:31;25.40;57.00
68922;DHT22;55959;51.244;5.724;2023-07-29T10:33:04;25.50;57.40
68922;DHT22;55959;51.244;5.724;2023-07-29T10:35:33;25.50;57.50
68922;DHT22;55959;51.244;5.724;2023-07-29T10:38:00;25.50;57.10
68922;DHT22;55959;51.244;5.724;2023-07-29T10:40:47;25.60;56.80
68922;DHT22;55959;51.244;5.724;2023-07-29T10:43:19;25.50;56.50
68922;DHT22;55959;51.244;5.724;2023-07-29T10:45:50;25.60;56.60
68922;DHT22;55959;51.244;5.724;2023-07-29T10:51:36;25.60;56.40
68922;DHT22;55959;51.244;5.724;2023-07-29T10:54:11;25.60;56.90
68922;DHT22;55959;51.244;5.724;2023-07-29T10:56:46;25.60;56.10
68922;DHT22;55959;51.244;5.724;2023-07-29T11:01:59;25.60;56.10
68922;DHT22;55959;51.244;5.724;2023-07-29T11:04:28;25.60;56.10
68922;DHT22;55959;51.244;5.724;2023-07-29T11:15:27;25.70;56.60
68922;DHT22;55959;51.244;5.724;2023-07-29T11:18:01;25.80;56.10
68922;DHT22;55959;51.244;5.724;2023-07-29T11:20:33;25.80;55.90
68922;DHT22;55959;51.244;5.724;2023-07-29T11:23:03;25.80;55.90
68922;DHT22;55959;51.244;5.724;2023-07-29T11:25:30;25.80;55.90
68922;DHT22;55959;51.244;5.724;2023-07-29T11:27:57;25.90;56.00
68922;DHT22;55959;51.244;5.724;2023-07-29T11:30:24;25.90;56.00
68922;DHT22;55959;51.244;5.724;2023-07-29T11:32:55;25.90;55.70
68922;DHT22;55959;51.244;5.724;2023-07-29T11:35:21;26.00;55.80
68922;DHT22;55959;51.244;5.724;2023-07-29T11:37:49;26.00;55.70
68922;DHT22;55959;51.244;5.724;2023-07-29T11:40:17;26.00;55.80
68922;DHT22;55959;51.244;5.724;2023-07-29T11:42:45;26.10;55.70
68922;DHT22;55959;51.244;5.724;2023-07-29T11:45:13;26.10;55.50
68922;DHT22;55959;51.244;5.724;2023-07-29T11:47:39;26.10;55.70
68922;DHT22;55959;51.244;5.724;2023-07-29T11:50:07;26.20;56.50
68922;DHT22;55959;51.244;5.724;2023-07-29T11:52:40;26.20;55.40
68922;DHT22;55959;51.244;5.724;2023-07-29T11:55:07;26.20;55.20
68922;DHT22;55959;51.244;5.724;2023-07-29T11:57:37;26.30;55.30
68922;DHT22;55959;51.244;5.724;2023-07-29T12:00:09;26.30;55.30
68922;DHT22;55959;51.244;5.724;2023-07-29T12:02:46;26.30;55.30
68922;DHT22;55959;51.244;5.724;2023-07-29T12:05:14;26.40;55.30
68922;DHT22;55959;51.244;5.724;2023-07-29T12:07:42;26.40;55.10
68922;DHT22;55959;51.244;5.724;2023-07-29T12:10:09;26.40;54.70
68922;DHT22;55959;51.244;5.724;2023-07-29T12:12:44;26.40;54.80
68922;DHT22;55959;51.244;5.724;2023-07-29T12:15:11;26.50;54.80
68922;DHT22;55959;51.244;5.724;2023-07-29T12:17:41;26.50;54.60
68922;DHT22;55959;51.244;5.724;2023-07-29T12:20:10;26.50;54.50
68922;DHT22;55959;51.244;5.724;2023-07-29T12:22:36;26.40;54.50
68922;DHT22;55959;51.244;5.724;2023-07-29T12:25:03;26.40;54.40
68922;DHT22;55959;51.244;5.724;2023-07-29T12:27:30;26.40;54.60
68922;DHT22;55959;51.244;5.724;2023-07-29T12:29:57;26.40;55.20
68922;DHT22;55959;51.244;5.724;2023-07-29T12:32:25;26.30;55.40
68922;DHT22;55959;51.244;5.724;2023-07-29T12:34:53;26.30;55.80
68922;DHT22;55959;51.244;5.724;2023-07-29T12:37:20;26.20;55.70
68922;DHT22;55959;51.244;5.724;2023-07-29T12:39:56;26.10;55.70
68922;DHT22;55959;51.244;5.724;2023-07-29T12:42:23;26.00;55.80
68922;DHT22;55959;51.244;5.724;2023-07-29T12:44:49;26.00;56.10
68922;DHT22;55959;51.244;5.724;2023-07-29T12:47:14;25.90;56.40
68922;DHT22;55959;51.244;5.724;2023-07-29T12:49:40;25.80;56.70
68922;DHT22;55959;51.244;5.724;2023-07-29T12:52:06;25.70;57.00
68922;DHT22;55959;51.244;5.724;2023-07-29T12:54:33;25.70;57.40
68922;DHT22;55959;51.244;5.724;2023-07-29T12:56:58;25.60;57.70
68922;DHT22;55959;51.244;5.724;2023-07-29T12:59:24;25.60;58.00
68922;DHT22;55959;51.244;5.724;2023-07-29T13:01:51;25.50;58.30
68922;DHT22;55959;51.244;5.724;2023-07-29T13:04:17;25.50;58.50
68922;DHT22;55959;51.244;5.724;2023-07-29T13:06:42;25.50;58.60
68922;DHT22;55959;51.244;5.724;2023-07-29T13:09:08;25.50;59.00
68922;DHT22;55959;51.244;5.724;2023-07-29T13:11:34;25.50;59.30
68922;DHT22;55959;51.244;5.724;2023-07-29T13:14:00;25.50;60.20
68922;DHT22;55959;51.244;5.724;2023-07-29T13:16:27;25.50;60.50
68922;DHT22;55959;51.244;5.724;2023-07-29T13:18:53;25.50;60.40
68922;DHT22;55959;51.244;5.724;2023-07-29T13:21:19;25.60;60.50
68922;DHT22;55959;51.244;5.724;2023-07-29T13:23:44;25.60;60.50
68922;DHT22;55959;51.244;5.724;2023-07-29T13:26:10;25.60;60.50
68922;DHT22;55959;51.244;5.724;2023-07-29T13:28:36;25.60;60.70
68922;DHT22;55959;51.244;5.724;2023-07-29T13:31:04;25.70;60.80
68922;DHT22;55959;51.244;5.724;2023-07-29T13:33:32;25.70;60.70
68922;DHT22;55959;51.244;5.724;2023-07-29T13:36:00;25.70;60.50
68922;DHT22;55959;51.244;5.724;2023-07-29T13:38:28;25.80;60.70
68922;DHT22;55959;51.244;5.724;2023-07-29T13:40:54;25.80;61.40
68922;DHT22;55959;51.244;5.724;2023-07-29T13:43:21;25.80;60.60
68922;DHT22;55959;51.244;5.724;2023-07-29T13:45:47;25.80;60.50
68922;DHT22;55959;51.244;5.724;2023-07-29T13:48:14;25.90;60.20
68922;DHT22;55959;51.244;5.724;2023-07-29T13:50:40;25.90;59.60
68922;DHT22;55959;51.244;5.724;2023-07-29T13:53:06;25.90;59.10
68922;DHT22;55959;51.244;5.724;2023-07-29T13:55:32;25.90;58.50
68922;DHT22;55959;51.244;5.724;2023-07-29T13:57:58;25.80;58.50
68922;DHT22;55959;51.244;5.724;2023-07-29T14:00:24;25.70;59.00
68922;DHT22;55959;51.244;5.724;2023-07-29T14:02:49;25.60;58.60
68922;DHT22;55959;51.244;5.724;2023-07-29T14:05:15;25.50;58.70
68922;DHT22;55959;51.244;5.724;2023-07-29T14:07:41;25.30;59.00
68922;DHT22;55959;51.244;5.724;2023-07-29T14:10:07;25.20;59.50
68922;DHT22;55959;51.244;5.724;2023-07-29T14:12:33;25.00;61.10
68922;DHT22;55959;51.244;5.724;2023-07-29T14:14:59;25.00;61.30
68922;DHT22;55959;51.244;5.724;2023-07-29T14:17:25;24.90;62.30
68922;DHT22;55959;51.244;5.724;2023-07-29T14:19:51;24.90;62.90
68922;DHT22;55959;51.244;5.724;2023-07-29T14:22:16;24.90;63.20
68922;DHT22;55959;51.244;5.724;2023-07-29T14:24:42;24.90;63.50
68922;DHT22;55959;51.244;5.724;2023-07-29T14:27:08;25.00;64.20
68922;DHT22;55959;51.244;5.724;2023-07-29T14:29:34;24.90;64.50
68922;DHT22;55959;51.244;5.724;2023-07-29T14:31:59;25.00;64.80
68922;DHT22;55959;51.244;5.724;2023-07-29T14:34:25;25.00;65.20
68922;DHT22;55959;51.244;5.724;2023-07-29T14:36:52;25.00;65.40
68922;DHT22;55959;51.244;5.724;2023-07-29T14:39:17;25.00;65.20
68922;DHT22;55959;51.244;5.724;2023-07-29T14:41:43;25.00;65.20
68922;DHT22;55959;51.244;5.724;2023-07-29T14:44:09;25.10;66.00
68922;DHT22;55959;51.244;5.724;2023-07-29T14:46:35;25.10;66.00
68922;DHT22;55959;51.244;5.724;2023-07-29T14:49:00;25.20;65.80
68922;DHT22;55959;51.244;5.724;2023-07-29T14:51:26;25.20;65.70
68922;DHT22;55959;51.244;5.724;2023-07-29T14:53:52;25.30;66.00
68922;DHT22;55959;51.244;5.724;2023-07-29T14:56:17;25.30;65.70
68922;DHT22;55959;51.244;5.724;2023-07-29T14:58:44;25.40;65.70
68922;DHT22;55959;51.244;5.724;2023-07-29T15:01:10;25.40;65.60
68922;DHT22;55959;51.244;5.724;2023-07-29T15:03:36;25.50;65.70
68922;DHT22;55959;51.244;5.724;2023-07-29T15:06:01;25.50;65.70
68922;DHT22;55959;51.244;5.724;2023-07-29T15:08:28;25.60;65.60
68922;DHT22;55959;51.244;5.724;2023-07-29T15:10:54;25.60;65.80
68922;DHT22;55959;51.244;5.724;2023-07-29T15:13:20;25.70;65.90
68922;DHT22;55959;51.244;5.724;2023-07-29T15:15:45;25.80;65.70
68922;DHT22;55959;51.244;5.724;2023-07-29T15:18:11;25.90;65.80
68922;DHT22;55959;51.244;5.724;2023-07-29T15:20:37;26.00;65.80
68922;DHT22;55959;51.244;5.724;2023-07-29T15:23:03;26.00;65.90
68922;DHT22;55959;51.244;5.724;2023-07-29T15:25:29;26.10;65.60
68922;DHT22;55959;51.244;5.724;2023-07-29T15:27:54;26.20;64.30
68922;DHT22;55959;51.244;5.724;2023-07-29T15:30:20;26.30;63.20
68922;DHT22;55959;51.244;5.724;2023-07-29T15:32:46;26.30;62.00
68922;DHT22;55959;51.244;5.724;2023-07-29T15:35:12;26.40;61.30
68922;DHT22;55959;51.244;5.724;2023-07-29T15:37:38;26.40;60.50
68922;DHT22;55959;51.244;5.724;2023-07-29T15:40:04;26.40;59.90
68922;DHT22;55959;51.244;5.724;2023-07-29T15:42:31;26.50;59.80
68922;DHT22;55959;51.244;5.724;2023-07-29T15:44:57;26.50;59.90
68922;DHT22;55959;51.244;5.724;2023-07-29T15:47:23;26.50;59.50
68922;DHT22;55959;51.244;5.724;2023-07-29T15:49:49;26.50;59.20
68922;DHT22;55959;51.244;5.724;2023-07-29T15:52:14;26.50;59.10